sensor_id;sensor_type;location;lat;lon;timestamp;P1;durP1;ratioP1;P2;durP2;ratioP2
16039;SDS011;8124;48.634;8.120;2024-01-15T00:01:41;56.73;;;38.63;;
16039;SDS011;8124;48.634;8.120;2024-01-15T00:06:47;49.80;;;38.00;;
16039;SDS011;8124;48.634;8.120;2024-01-15T00:11:50;57.77;;;39.93;;
16039;SDS011;8124;48.634;8.120;2024-01-15T00:16:53;56.13;;;37.97;;
16039;SDS011;8124;48.634;8.120;2024-01-15T00:21:57;55.63;;;39.03;;
16039;SDS011;8124;48.634;8.120;2024-01-15T00:27:01;58.33;;;39.47;;
16039;SDS011;8124;48.634;8.120;2024-01-15T00:32:04;49.73;;;37.37;;
16039;SDS011;8124;48.634;8.120;2024-01-15T00:37:09;59.60;;;38.90;;
16039;SDS011;8124;48.634;8.120;2024-01-15T00:42:12;54.23;;;37.03;;
16039;SDS011;8124;48.634;8.120;2024-01-15T00:47:15;58.50;;;37.87;;
16039;SDS011;8124;48.634;8.120;2024-01-15T00:52:21;62.83;;;40.93;;
16039;SDS011;8124;48.634;8.120;2024-01-15T00:57:24;57.00;;;39.03;;
16039;SDS011;8124;48.634;8.120;2024-01-15T01:02:27;53.33;;;38.43;;
16039;SDS011;8124;48.634;8.120;2024-01-15T01:07:32;56.67;;;39.23;;
16039;SDS011;8124;48.634;8.120;2024-01-15T01:12:35;52.87;;;37.57;;
16039;SDS011;8124;48.634;8.120;2024-01-15T01:17:38;58.37;;;38.60;;
16039;SDS011;8124;48.634;8.120;2024-01-15T01:22:43;53.87;;;37.63;;
16039;SDS011;8124;48.634;8.120;2024-01-15T01:27:46;55.73;;;38.27;;
16039;SDS011;8124;48.634;8.120;2024-01-15T01:32:49;52.40;;;37.83;;
16039;SDS011;8124;48.634;8.120;2024-01-15T01:37:53;54.70;;;38.60;;
16039;SDS011;8124;48.634;8.120;2024-01-15T01:42:56;54.80;;;38.27;;
16039;SDS011;8124;48.634;8.120;2024-01-15T01:47:59;56.20;;;38.73;;
16039;SDS011;8124;48.634;8.120;2024-01-15T01:53:04;54.77;;;39.03;;
16039;SDS011;8124;48.634;8.120;2024-01-15T01:58:08;53.47;;;38.80;;
16039;SDS011;8124;48.634;8.120;2024-01-15T02:03:11;53.50;;;38.70;;
16039;SDS011;8124;48.634;8.120;2024-01-15T02:08:15;55.27;;;38.87;;
16039;SDS011;8124;48.634;8.120;2024-01-15T02:13:19;57.37;;;39.23;;
16039;SDS011;8124;48.634;8.120;2024-01-15T02:18:23;55.17;;;38.10;;
16039;SDS011;8124;48.634;8.120;2024-01-15T02:23:28;54.60;;;39.40;;
16039;SDS011;8124;48.634;8.120;2024-01-15T02:28:31;55.50;;;39.17;;
16039;SDS011;8124;48.634;8.120;2024-01-15T02:33:35;54.67;;;39.07;;
16039;SDS011;8124;48.634;8.120;2024-01-15T02:38:41;51.60;;;38.57;;
16039;SDS011;8124;48.634;8.120;2024-01-15T02:43:44;50.97;;;38.43;;
16039;SDS011;8124;48.634;8.120;2024-01-15T02:48:47;50.13;;;37.37;;
16039;SDS011;8124;48.634;8.120;2024-01-15T02:53:52;52.40;;;37.37;;
16039;SDS011;8124;48.634;8.120;2024-01-15T02:58:55;53.93;;;37.23;;
16039;SDS011;8124;48.634;8.120;2024-01-15T03:03:58;51.73;;;37.47;;
16039;SDS011;8124;48.634;8.120;2024-01-15T03:09:02;51.83;;;37.63;;
16039;SDS011;8124;48.634;8.120;2024-01-15T03:14:06;53.33;;;38.53;;
16039;SDS011;8124;48.634;8.120;2024-01-15T03:19:09;55.37;;;37.97;;
16039;SDS011;8124;48.634;8.120;2024-01-15T03:24:14;51.33;;;37.73;;
16039;SDS011;8124;48.634;8.120;2024-01-15T03:29:17;51.43;;;36.93;;
16039;SDS011;8124;48.634;8.120;2024-01-15T03:34:20;50.70;;;37.40;;
16039;SDS011;8124;48.634;8.120;2024-01-15T03:39:24;49.60;;;36.50;;
16039;SDS011;8124;48.634;8.120;2024-01-15T03:44:27;53.33;;;38.47;;
16039;SDS011;8124;48.634;8.120;2024-01-15T03:49:31;55.37;;;37.57;;
16039;SDS011;8124;48.634;8.120;2024-01-15T03:54:35;50.50;;;36.80;;
16039;SDS011;8124;48.634;8.120;2024-01-15T03:59:40;47.30;;;36.67;;
16039;SDS011;8124;48.634;8.120;2024-01-15T04:04:43;47.80;;;36.10;;
16039;SDS011;8124;48.634;8.120;2024-01-15T04:09:47;51.83;;;37.17;;
16039;SDS011;8124;48.634;8.120;2024-01-15T04:14:50;51.80;;;36.70;;
16039;SDS011;8124;48.634;8.120;2024-01-15T04:19:53;47.07;;;35.97;;
16039;SDS011;8124;48.634;8.120;2024-01-15T04:24:58;49.37;;;37.03;;
16039;SDS011;8124;48.634;8.120;2024-01-15T04:30:01;51.57;;;37.67;;
16039;SDS011;8124;48.634;8.120;2024-01-15T04:35:05;47.87;;;36.53;;
16039;SDS011;8124;48.634;8.120;2024-01-15T04:40:10;46.33;;;36.43;;
16039;SDS011;8124;48.634;8.120;2024-01-15T04:45:14;52.83;;;38.00;;
16039;SDS011;8124;48.634;8.120;2024-01-15T04:50:17;53.00;;;37.03;;
16039;SDS011;8124;48.634;8.120;2024-01-15T04:55:21;51.27;;;37.37;;
16039;SDS011;8124;48.634;8.120;2024-01-15T05:00:24;48.93;;;36.10;;
16039;SDS011;8124;48.634;8.120;2024-01-15T05:05:27;45.00;;;35.83;;
16039;SDS011;8124;48.634;8.120;2024-01-15T05:10:32;47.90;;;36.37;;
16039;SDS011;8124;48.634;8.120;2024-01-15T05:15:35;48.63;;;35.60;;
16039;SDS011;8124;48.634;8.120;2024-01-15T05:20:38;48.37;;;35.83;;
16039;SDS011;8124;48.634;8.120;2024-01-15T05:25:42;47.57;;;35.80;;
16039;SDS011;8124;48.634;8.120;2024-01-15T05:30:46;43.17;;;35.23;;
16039;SDS011;8124;48.634;8.120;2024-01-15T05:35:49;46.30;;;35.27;;
16039;SDS011;8124;48.634;8.120;2024-01-15T05:40:53;44.63;;;35.37;;
16039;SDS011;8124;48.634;8.120;2024-01-15T05:45:56;46.67;;;36.10;;
16039;SDS011;8124;48.634;8.120;2024-01-15T05:51:00;44.67;;;34.37;;
16039;SDS011;8124;48.634;8.120;2024-01-15T05:56:05;40.90;;;34.73;;
16039;SDS011;8124;48.634;8.120;2024-01-15T06:01:08;43.57;;;34.93;;
16039;SDS011;8124;48.634;8.120;2024-01-15T06:06:12;45.03;;;35.03;;
16039;SDS011;8124;48.634;8.120;2024-01-15T06:11:17;41.03;;;33.93;;
16039;SDS011;8124;48.634;8.120;2024-01-15T06:16:19;42.53;;;33.67;;
16039;SDS011;8124;48.634;8.120;2024-01-15T06:21:23;39.60;;;33.10;;
16039;SDS011;8124;48.634;8.120;2024-01-15T06:26:28;40.33;;;33.60;;
16039;SDS011;8124;48.634;8.120;2024-01-15T06:31:31;38.57;;;33.07;;
16039;SDS011;8124;48.634;8.120;2024-01-15T06:36:34;40.30;;;33.83;;
16039;SDS011;8124;48.634;8.120;2024-01-15T06:41:39;38.80;;;32.70;;
16039;SDS011;8124;48.634;8.120;2024-01-15T06:46:45;40.27;;;33.23;;
16039;SDS011;8124;48.634;8.120;2024-01-15T06:51:48;39.43;;;32.97;;
16039;SDS011;8124;48.634;8.120;2024-01-15T06:56:52;40.37;;;32.83;;
16039;SDS011;8124;48.634;8.120;2024-01-15T07:01:55;39.27;;;32.77;;
16039;SDS011;8124;48.634;8.120;2024-01-15T07:06:58;37.93;;;32.93;;
16039;SDS011;8124;48.634;8.120;2024-01-15T07:12:03;44.60;;;36.10;;
16039;SDS011;8124;48.634;8.120;2024-01-15T07:17:06;48.30;;;38.30;;
16039;SDS011;8124;48.634;8.120;2024-01-15T07:22:10;42.97;;;35.80;;
16039;SDS011;8124;48.634;8.120;2024-01-15T07:27:14;40.73;;;33.13;;
16039;SDS011;8124;48.634;8.120;2024-01-15T07:32:17;38.00;;;33.13;;
16039;SDS011;8124;48.634;8.120;2024-01-15T07:37:22;39.00;;;33.23;;
16039;SDS011;8124;48.634;8.120;2024-01-15T07:42:26;40.40;;;33.40;;
16039;SDS011;8124;48.634;8.120;2024-01-15T07:47:29;39.67;;;33.60;;
16039;SDS011;8124;48.634;8.120;2024-01-15T07:52:33;41.17;;;33.83;;
16039;SDS011;8124;48.634;8.120;2024-01-15T07:57:37;42.33;;;34.60;;
16039;SDS011;8124;48.634;8.120;2024-01-15T08:02:40;46.73;;;36.37;;
16039;SDS011;8124;48.634;8.120;2024-01-15T08:07:43;50.03;;;36.10;;
16039;SDS011;8124;48.634;8.120;2024-01-15T08:12:48;50.90;;;37.97;;
16039;SDS011;8124;48.634;8.120;2024-01-15T08:17:51;48.03;;;38.37;;
16039;SDS011;8124;48.634;8.120;2024-01-15T08:22:54;47.97;;;37.93;;
16039;SDS011;8124;48.634;8.120;2024-01-15T08:27:58;50.10;;;38.93;;
16039;SDS011;8124;48.634;8.120;2024-01-15T08:33:01;52.03;;;38.00;;
16039;SDS011;8124;48.634;8.120;2024-01-15T08:38:14;56.20;;;38.40;;
16039;SDS011;8124;48.634;8.120;2024-01-15T08:43:19;51.17;;;38.03;;
16039;SDS011;8124;48.634;8.120;2024-01-15T08:48:22;49.30;;;39.17;;
16039;SDS011;8124;48.634;8.120;2024-01-15T08:53:27;55.03;;;39.13;;
16039;SDS011;8124;48.634;8.120;2024-01-15T08:58:31;59.87;;;44.37;;
16039;SDS011;8124;48.634;8.120;2024-01-15T09:03:34;55.07;;;39.13;;
16039;SDS011;8124;48.634;8.120;2024-01-15T09:08:38;49.77;;;38.27;;
16039;SDS011;8124;48.634;8.120;2024-01-15T09:13:42;52.73;;;38.37;;
16039;SDS011;8124;48.634;8.120;2024-01-15T09:18:45;48.63;;;36.70;;
16039;SDS011;8124;48.634;8.120;2024-01-15T09:23:49;49.87;;;37.50;;
16039;SDS011;8124;48.634;8.120;2024-01-15T09:28:54;47.87;;;36.83;;
16039;SDS011;8124;48.634;8.120;2024-01-15T09:33:56;51.33;;;37.27;;
16039;SDS011;8124;48.634;8.120;2024-01-15T09:39:01;51.00;;;36.20;;
16039;SDS011;8124;48.634;8.120;2024-01-15T09:44:06;53.30;;;37.73;;
16039;SDS011;8124;48.634;8.120;2024-01-15T09:49:10;47.17;;;36.30;;
16039;SDS011;8124;48.634;8.120;2024-01-15T09:54:14;48.47;;;36.80;;
16039;SDS011;8124;48.634;8.120;2024-01-15T09:59:20;45.50;;;35.73;;
16039;SDS011;8124;48.634;8.120;2024-01-15T10:04:24;45.50;;;34.87;;
16039;SDS011;8124;48.634;8.120;2024-01-15T10:09:27;47.43;;;35.23;;
16039;SDS011;8124;48.634;8.120;2024-01-15T10:14:33;41.63;;;34.50;;
16039;SDS011;8124;48.634;8.120;2024-01-15T10:19:36;42.63;;;34.43;;
16039;SDS011;8124;48.634;8.120;2024-01-15T10:24:40;42.27;;;33.83;;
16039;SDS011;8124;48.634;8.120;2024-01-15T10:29:44;40.03;;;33.47;;
16039;SDS011;8124;48.634;8.120;2024-01-15T10:34:47;39.00;;;32.67;;
16039;SDS011;8124;48.634;8.120;2024-01-15T10:39:54;40.53;;;33.97;;
16039;SDS011;8124;48.634;8.120;2024-01-15T10:44:59;40.07;;;32.97;;
16039;SDS011;8124;48.634;8.120;2024-01-15T10:50:02;42.40;;;33.37;;
16039;SDS011;8124;48.634;8.120;2024-01-15T10:55:08;40.90;;;34.97;;
16039;SDS011;8124;48.634;8.120;2024-01-15T11:00:21;39.30;;;33.67;;
16039;SDS011;8124;48.634;8.120;2024-01-15T11:05:26;41.27;;;33.63;;
16039;SDS011;8124;48.634;8.120;2024-01-15T11:10:39;44.77;;;35.93;;
16039;SDS011;8124;48.634;8.120;2024-01-15T11:15:55;41.40;;;34.47;;
16039;SDS011;8124;48.634;8.120;2024-01-15T11:26:27;41.00;;;34.07;;
16039;SDS011;8124;48.634;8.120;2024-01-15T11:37:02;44.60;;;33.90;;
16039;SDS011;8124;48.634;8.120;2024-01-15T11:42:06;46.33;;;34.43;;
16039;SDS011;8124;48.634;8.120;2024-01-15T11:47:10;40.80;;;34.33;;
16039;SDS011;8124;48.634;8.120;2024-01-15T11:52:17;38.70;;;33.30;;
16039;SDS011;8124;48.634;8.120;2024-01-15T11:57:21;39.30;;;33.57;;
16039;SDS011;8124;48.634;8.120;2024-01-15T12:02:33;42.80;;;34.37;;
16039;SDS011;8124;48.634;8.120;2024-01-15T12:07:37;39.17;;;33.67;;
16039;SDS011;8124;48.634;8.120;2024-01-15T12:12:53;37.67;;;32.90;;
16039;SDS011;8124;48.634;8.120;2024-01-15T12:18:02;38.77;;;33.70;;
16039;SDS011;8124;48.634;8.120;2024-01-15T12:23:05;40.37;;;32.87;;
16039;SDS011;8124;48.634;8.120;2024-01-15T12:28:10;40.30;;;32.83;;
16039;SDS011;8124;48.634;8.120;2024-01-15T12:33:17;42.63;;;35.23;;
16039;SDS011;8124;48.634;8.120;2024-01-15T12:38:21;40.83;;;34.83;;
16039;SDS011;8124;48.634;8.120;2024-01-15T12:43:24;43.83;;;34.37;;
16039;SDS011;8124;48.634;8.120;2024-01-15T12:48:28;41.03;;;34.07;;
16039;SDS011;8124;48.634;8.120;2024-01-15T12:53:31;44.80;;;35.73;;
16039;SDS011;8124;48.634;8.120;2024-01-15T12:58:36;42.07;;;34.13;;
16039;SDS011;8124;48.634;8.120;2024-01-15T13:03:41;39.20;;;33.80;;
16039;SDS011;8124;48.634;8.120;2024-01-15T13:08:44;41.50;;;34.37;;
16039;SDS011;8124;48.634;8.120;2024-01-15T13:13:47;40.83;;;33.97;;
16039;SDS011;8124;48.634;8.120;2024-01-15T13:18:52;41.23;;;34.77;;
16039;SDS011;8124;48.634;8.120;2024-01-15T13:23:55;40.27;;;33.60;;
16039;SDS011;8124;48.634;8.120;2024-01-15T13:28:58;37.90;;;33.30;;
16039;SDS011;8124;48.634;8.120;2024-01-15T13:34:05;38.23;;;34.00;;
16039;SDS011;8124;48.634;8.120;2024-01-15T13:39:09;43.87;;;35.47;;
16039;SDS011;8124;48.634;8.120;2024-01-15T13:44:12;42.10;;;34.73;;
16039;SDS011;8124;48.634;8.120;2024-01-15T13:49:16;38.83;;;33.70;;
16039;SDS011;8124;48.634;8.120;2024-01-15T13:54:22;36.47;;;32.43;;
16039;SDS011;8124;48.634;8.120;2024-01-15T13:59:38;44.73;;;33.60;;
16039;SDS011;8124;48.634;8.120;2024-01-15T14:04:42;55.33;;;39.03;;
16039;SDS011;8124;48.634;8.120;2024-01-15T14:09:45;43.07;;;36.00;;
16039;SDS011;8124;48.634;8.120;2024-01-15T14:14:48;39.17;;;33.63;;
16039;SDS011;8124;48.634;8.120;2024-01-15T14:19:53;39.33;;;35.00;;
16039;SDS011;8124;48.634;8.120;2024-01-15T14:24:57;40.27;;;34.13;;
16039;SDS011;8124;48.634;8.120;2024-01-15T14:30:00;39.33;;;33.77;;
16039;SDS011;8124;48.634;8.120;2024-01-15T14:35:06;41.43;;;35.20;;
16039;SDS011;8124;48.634;8.120;2024-01-15T14:40:12;39.27;;;34.03;;
16039;SDS011;8124;48.634;8.120;2024-01-15T14:45:18;38.97;;;32.83;;
16039;SDS011;8124;48.634;8.120;2024-01-15T14:50:23;41.03;;;33.70;;
16039;SDS011;8124;48.634;8.120;2024-01-15T14:55:26;40.53;;;35.20;;
16039;SDS011;8124;48.634;8.120;2024-01-15T15:00:29;39.20;;;33.47;;
16039;SDS011;8124;48.634;8.120;2024-01-15T15:05:34;41.10;;;34.20;;
16039;SDS011;8124;48.634;8.120;2024-01-15T15:10:37;40.37;;;33.70;;
16039;SDS011;8124;48.634;8.120;2024-01-15T15:15:41;38.40;;;32.77;;
16039;SDS011;8124;48.634;8.120;2024-01-15T15:20:46;38.77;;;33.87;;
16039;SDS011;8124;48.634;8.120;2024-01-15T15:25:51;38.00;;;33.47;;
16039;SDS011;8124;48.634;8.120;2024-01-15T15:30:57;38.17;;;33.45;;
16039;SDS011;8124;48.634;8.120;2024-01-15T15:36:25;45.53;;;34.20;;
16039;SDS011;8124;48.634;8.120;2024-01-15T15:41:32;37.20;;;33.13;;
16039;SDS011;8124;48.634;8.120;2024-01-15T15:46:42;38.93;;;33.40;;
16039;SDS011;8124;48.634;8.120;2024-01-15T15:51:53;39.40;;;33.73;;
16039;SDS011;8124;48.634;8.120;2024-01-15T15:56:59;38.60;;;33.40;;
16039;SDS011;8124;48.634;8.120;2024-01-15T16:02:07;40.47;;;33.27;;
16039;SDS011;8124;48.634;8.120;2024-01-15T16:07:13;40.20;;;34.37;;
16039;SDS011;8124;48.634;8.120;2024-01-15T16:12:17;40.50;;;33.87;;
16039;SDS011;8124;48.634;8.120;2024-01-15T16:17:26;40.13;;;33.47;;
16039;SDS011;8124;48.634;8.120;2024-01-15T16:22:51;44.97;;;35.93;;
16039;SDS011;8124;48.634;8.120;2024-01-15T16:28:21;44.50;;;35.40;;
16039;SDS011;8124;48.634;8.120;2024-01-15T16:33:25;42.27;;;34.20;;
16039;SDS011;8124;48.634;8.120;2024-01-15T16:38:30;40.77;;;34.20;;
16039;SDS011;8124;48.634;8.120;2024-01-15T16:43:34;40.70;;;34.30;;
16039;SDS011;8124;48.634;8.120;2024-01-15T16:48:37;37.73;;;33.37;;
16039;SDS011;8124;48.634;8.120;2024-01-15T16:53:44;38.13;;;33.67;;
16039;SDS011;8124;48.634;8.120;2024-01-15T16:58:47;38.57;;;33.83;;
16039;SDS011;8124;48.634;8.120;2024-01-15T17:03:51;39.50;;;33.73;;
16039;SDS011;8124;48.634;8.120;2024-01-15T17:08:55;37.80;;;33.07;;
16039;SDS011;8124;48.634;8.120;2024-01-15T17:13:59;40.37;;;34.20;;
16039;SDS011;8124;48.634;8.120;2024-01-15T17:19:04;40.33;;;33.77;;
16039;SDS011;8124;48.634;8.120;2024-01-15T17:24:10;39.03;;;34.20;;
16039;SDS011;8124;48.634;8.120;2024-01-15T17:29:14;38.57;;;33.57;;
16039;SDS011;8124;48.634;8.120;2024-01-15T17:34:17;38.33;;;34.00;;
16039;SDS011;8124;48.634;8.120;2024-01-15T17:39:22;39.27;;;33.77;;
16039;SDS011;8124;48.634;8.120;2024-01-15T17:44:25;42.27;;;33.30;;
16039;SDS011;8124;48.634;8.120;2024-01-15T17:49:28;38.33;;;33.40;;
16039;SDS011;8124;48.634;8.120;2024-01-15T17:54:33;37.60;;;32.97;;
16039;SDS011;8124;48.634;8.120;2024-01-15T17:59:38;39.53;;;33.97;;
16039;SDS011;8124;48.634;8.120;2024-01-15T18:04:42;38.90;;;33.67;;
16039;SDS011;8124;48.634;8.120;2024-01-15T18:09:46;46.60;;;33.87;;
16039;SDS011;8124;48.634;8.120;2024-01-15T18:14:50;38.83;;;33.40;;
16039;SDS011;8124;48.634;8.120;2024-01-15T18:19:53;38.93;;;34.27;;
16039;SDS011;8124;48.634;8.120;2024-01-15T18:25:00;38.77;;;33.40;;
16039;SDS011;8124;48.634;8.120;2024-01-15T18:30:12;37.70;;;32.93;;
16039;SDS011;8124;48.634;8.120;2024-01-15T18:35:18;36.77;;;32.23;;
16039;SDS011;8124;48.634;8.120;2024-01-15T18:40:24;38.70;;;32.90;;
16039;SDS011;8124;48.634;8.120;2024-01-15T18:45:27;38.07;;;32.93;;
16039;SDS011;8124;48.634;8.120;2024-01-15T18:50:32;38.87;;;32.83;;
16039;SDS011;8124;48.634;8.120;2024-01-15T18:55:42;37.40;;;32.77;;
16039;SDS011;8124;48.634;8.120;2024-01-15T19:00:45;38.57;;;32.97;;
16039;SDS011;8124;48.634;8.120;2024-01-15T19:05:48;37.77;;;33.03;;
16039;SDS011;8124;48.634;8.120;2024-01-15T19:10:53;44.33;;;37.90;;
16039;SDS011;8124;48.634;8.120;2024-01-15T19:15:56;42.27;;;33.93;;
16039;SDS011;8124;48.634;8.120;2024-01-15T19:21:01;38.77;;;33.90;;
16039;SDS011;8124;48.634;8.120;2024-01-15T19:26:05;41.08;;;33.20;;
16039;SDS011;8124;48.634;8.120;2024-01-15T19:31:10;36.93;;;32.30;;
16039;SDS011;8124;48.634;8.120;2024-01-15T19:36:20;40.87;;;33.90;;
16039;SDS011;8124;48.634;8.120;2024-01-15T19:41:25;36.93;;;32.67;;
16039;SDS011;8124;48.634;8.120;2024-01-15T19:46:28;37.67;;;32.67;;
16039;SDS011;8124;48.634;8.120;2024-01-15T19:51:32;39.17;;;33.27;;
16039;SDS011;8124;48.634;8.120;2024-01-15T19:56:36;38.10;;;33.03;;
16039;SDS011;8124;48.634;8.120;2024-01-15T20:01:39;40.63;;;34.70;;
16039;SDS011;8124;48.634;8.120;2024-01-15T20:06:43;37.17;;;32.53;;
16039;SDS011;8124;48.634;8.120;2024-01-15T20:11:47;37.20;;;32.57;;
16039;SDS011;8124;48.634;8.120;2024-01-15T20:16:51;36.53;;;32.53;;
16039;SDS011;8124;48.634;8.120;2024-01-15T20:21:54;39.13;;;32.57;;
16039;SDS011;8124;48.634;8.120;2024-01-15T20:26:58;36.83;;;32.10;;
16039;SDS011;8124;48.634;8.120;2024-01-15T20:32:03;36.43;;;32.40;;
16039;SDS011;8124;48.634;8.120;2024-01-15T20:37:06;37.70;;;32.73;;
16039;SDS011;8124;48.634;8.120;2024-01-15T20:42:11;37.83;;;32.83;;
16039;SDS011;8124;48.634;8.120;2024-01-15T20:47:14;38.77;;;33.23;;
16039;SDS011;8124;48.634;8.120;2024-01-15T20:52:17;43.35;;;37.33;;
16039;SDS011;8124;48.634;8.120;2024-01-15T20:57:25;40.13;;;33.93;;
16039;SDS011;8124;48.634;8.120;2024-01-15T21:02:28;42.20;;;33.57;;
16039;SDS011;8124;48.634;8.120;2024-01-15T21:07:31;38.93;;;33.77;;
16039;SDS011;8124;48.634;8.120;2024-01-15T21:12:36;38.87;;;33.40;;
16039;SDS011;8124;48.634;8.120;2024-01-15T21:17:39;37.17;;;32.77;;
16039;SDS011;8124;48.634;8.120;2024-01-15T21:22:42;39.90;;;33.83;;
16039;SDS011;8124;48.634;8.120;2024-01-15T21:27:46;37.33;;;32.97;;
16039;SDS011;8124;48.634;8.120;2024-01-15T21:32:49;37.47;;;33.37;;
16039;SDS011;8124;48.634;8.120;2024-01-15T21:37:53;38.30;;;33.83;;
16039;SDS011;8124;48.634;8.120;2024-01-15T21:42:57;39.90;;;34.13;;
16039;SDS011;8124;48.634;8.120;2024-01-15T21:48:00;38.67;;;33.33;;
16039;SDS011;8124;48.634;8.120;2024-01-15T21:53:03;37.87;;;33.43;;
16039;SDS011;8124;48.634;8.120;2024-01-15T21:58:09;37.93;;;33.80;;
16039;SDS011;8124;48.634;8.120;2024-01-15T22:03:12;39.43;;;34.20;;
16039;SDS011;8124;48.634;8.120;2024-01-15T22:08:18;39.27;;;33.90;;
16039;SDS011;8124;48.634;8.120;2024-01-15T22:13:22;39.13;;;34.23;;
16039;SDS011;8124;48.634;8.120;2024-01-15T22:18:25;37.87;;;33.13;;
16039;SDS011;8124;48.634;8.120;2024-01-15T22:23:28;37.07;;;33.07;;
16039;SDS011;8124;48.634;8.120;2024-01-15T22:28:33;37.67;;;32.83;;
16039;SDS011;8124;48.634;8.120;2024-01-15T22:33:36;36.77;;;32.47;;
16039;SDS011;8124;48.634;8.120;2024-01-15T22:38:39;41.73;;;32.63;;
16039;SDS011;8124;48.634;8.120;2024-01-15T22:43:43;36.30;;;32.27;;
16039;SDS011;8124;48.634;8.120;2024-01-15T22:48:46;37.90;;;33.03;;
16039;SDS011;8124;48.634;8.120;2024-01-15T22:53:50;37.00;;;32.67;;
16039;SDS011;8124;48.634;8.120;2024-01-15T22:58:56;36.60;;;32.50;;
16039;SDS011;8124;48.634;8.120;2024-01-15T23:03:59;38.83;;;34.30;;
16039;SDS011;8124;48.634;8.120;2024-01-15T23:09:02;36.77;;;32.30;;
16039;SDS011;8124;48.634;8.120;2024-01-15T23:14:06;38.00;;;32.93;;
16039;SDS011;8124;48.634;8.120;2024-01-15T23:19:09;42.17;;;33.47;;
16039;SDS011;8124;48.634;8.120;2024-01-15T23:24:12;37.73;;;33.23;;
16039;SDS011;8124;48.634;8.120;2024-01-15T23:29:16;38.20;;;32.87;;
16039;SDS011;8124;48.634;8.120;2024-01-15T23:34:19;36.40;;;32.40;;
16039;SDS011;8124;48.634;8.120;2024-01-15T23:39:22;37.67;;;32.40;;
16039;SDS011;8124;48.634;8.120;2024-01-15T23:44:27;39.30;;;33.63;;
16039;SDS011;8124;48.634;8.120;2024-01-15T23:49:30;38.10;;;32.90;;
16039;SDS011;8124;48.634;8.120;2024-01-15T23:54:33;35.90;;;32.00;;
16039;SDS011;8124;48.634;8.120;2024-01-15T23:59:39;38.23;;;32.27;;
